Terminal Aerodrome Forecast
Issued by NWS

Home | Current Version | Previous Version | Text Only | Print | Product List | Glossary On
Versions: 1 2 3 4 5 6 7 8 9 10 11 12 13 14 15 16 17 18 19
000
FTUS43 KMQT 310500
TAFIWD
TAF
KIWD 310521Z 3106/0106 36013G23KT 4SM -SHSN OVC020
     FM311600 01014G20KT P6SM -SHSN BKN030
     FM311900 36012G17KT P6SM -SHSN BKN040
     FM312200 34008KT P6SM SCT040
      AMD LTD TO CLD VIS AND WIND=

USA.gov is the U.S. government's official web portal to all federal, state and local government web resources and services.